Time;durP1;ratioP1;P1;durP2;ratioP2;P2;SDS_P1;SDS_P2;PMS_P1;PMS_P2;Temp;Humidity;BMP_temperature;BMP_pressure;BME280_temperature;BME280_humidity;BME280_pressure;Samples;Min_cycle;Max_cycle;Signal;HPM_P1;HPM_P2
2022/10/09 00:00:04;;;;;;;9.93;7.47;;;14.10;99.90;;;;;;4997869;28;20285;-77
2022/10/09 00:02:29;;;;;;;10.93;8.30;;;14.10;99.90;;;;;;4990816;28;20731;-76
2022/10/09 00:04:55;;;;;;;13.57;6.93;;;14.10;99.90;;;;;;4969951;28;20440;-75
2022/10/09 00:07:20;;;;;;;10.60;6.40;;;14.00;99.90;;;;;;4985164;28;20379;-76
2022/10/09 00:09:46;;;;;;;11.63;6.10;;;14.00;99.90;;;;;;4986371;28;20213;-76
2022/10/09 00:12:11;;;;;;;12.40;6.30;;;14.00;99.90;;;;;;4982601;28;20701;-76
2022/10/09 00:14:37;;;;;;;9.80;6.53;;;13.90;99.90;;;;;;4985298;28;20185;-77
2022/10/09 00:17:02;;;;;;;10.80;6.87;;;13.90;99.90;;;;;;4987215;28;20628;-77
2022/10/09 00:19:28;;;;;;;8.80;6.57;;;13.80;99.90;;;;;;4988697;28;20208;-77
2022/10/09 00:21:54;;;;;;;19.03;6.90;;;13.80;99.90;;;;;;4983352;28;20248;-76
2022/10/09 00:24:20;;;;;;;10.13;7.13;;;13.80;99.90;;;;;;4973305;28;20197;-76
2022/10/09 00:26:46;;;;;;;12.03;7.53;;;13.80;99.90;;;;;;4982601;28;20196;-76
2022/10/09 00:29:12;;;;;;;11.80;7.07;;;13.70;99.90;;;;;;4984428;28;20861;-77
2022/10/09 00:31:38;;;;;;;12.20;6.60;;;13.70;99.90;;;;;;4991139;28;20440;-76
2022/10/09 00:34:03;;;;;;;18.30;8.33;;;13.60;99.90;;;;;;4984740;28;20799;-75
2022/10/09 00:36:30;;;;;;;14.53;7.03;;;13.60;99.90;;;;;;4981880;28;20198;-75
2022/10/09 00:38:56;;;;;;;7.93;6.50;;;13.60;99.90;;;;;;4966707;28;20210;-76
2022/10/09 00:41:25;;;;;;;9.30;6.50;;;13.60;99.90;;;;;;4990992;28;20550;-76
2022/10/09 00:43:57;;;;;;;11.43;7.20;;;13.60;99.90;;;;;;4987642;28;20444;-76
2022/10/09 00:46:50;;;;;;;9.37;6.40;;;13.50;99.90;;;;;;4993305;28;20419;-76
2022/10/09 00:49:31;;;;;;;8.73;6.10;;;13.50;99.90;;;;;;4976254;28;20532;-76
2022/10/09 00:52:05;;;;;;;9.90;6.40;;;13.50;99.90;;;;;;4988876;28;20860;-76
2022/10/09 00:54:33;;;;;;;7.80;6.20;;;13.40;99.90;;;;;;4985432;28;20413;-75
2022/10/09 00:56:59;;;;;;;10.27;6.73;;;13.40;99.90;;;;;;4979776;28;20432;-76
2022/10/09 00:59:26;;;;;;;9.50;6.60;;;13.40;99.90;;;;;;4977182;28;20456;-75
2022/10/09 01:01:52;;;;;;;8.10;5.90;;;13.40;99.90;;;;;;4988265;28;20916;-75
2022/10/09 01:04:17;;;;;;;7.77;5.80;;;13.30;99.90;;;;;;4989267;28;20507;-75
2022/10/09 01:06:57;;;;;;;7.57;6.70;;;13.30;99.90;;;;;;4977116;28;20583;-75
2022/10/09 01:09:40;;;;;;;7.93;5.80;;;13.30;99.90;;;;;;4986226;28;20201;-76
2022/10/09 01:12:14;;;;;;;9.10;6.33;;;13.30;99.90;;;;;;4961691;28;20474;-76
2022/10/09 01:15:06;;;;;;;11.33;6.00;;;13.30;99.90;;;;;;4975926;28;20885;-75
2022/10/09 01:17:43;;;;;;;12.37;6.00;;;13.20;99.90;;;;;;4991156;28;20454;-76
2022/10/09 01:20:27;;;;;;;9.47;6.07;;;13.20;99.90;;;;;;4968989;28;21061;-75
2022/10/09 01:23:06;;;;;;;11.83;6.00;;;13.20;99.90;;;;;;4969028;28;20448;-76
2022/10/09 01:25:58;;;;;;;10.57;6.60;;;13.20;99.90;;;;;;4985218;28;20480;-76
2022/10/09 01:28:29;;;;;;;13.53;6.70;;;13.20;99.90;;;;;;4986080;28;20465;-75
2022/10/09 01:31:01;;;;;;;9.33;6.30;;;13.10;99.90;;;;;;4986095;28;20443;-74
2022/10/09 01:33:30;;;;;;;11.27;6.53;;;13.10;99.90;;;;;;4988051;28;20513;-76
2022/10/09 01:35:58;;;;;;;16.90;6.70;;;13.10;99.90;;;;;;4982928;28;20440;-75
2022/10/09 01:38:26;;;;;;;16.40;7.47;;;13.00;99.90;;;;;;4986855;28;20856;-75
2022/10/09 01:40:52;;;;;;;12.60;8.07;;;13.00;99.90;;;;;;4973704;28;20473;-75
2022/10/09 01:43:18;;;;;;;9.17;6.90;;;13.00;99.90;;;;;;4991057;28;20934;-74
2022/10/09 01:45:46;;;;;;;9.37;6.97;;;13.00;99.90;;;;;;4988938;28;20424;-76
2022/10/09 01:48:21;;;;;;;8.70;6.63;;;13.00;99.90;;;;;;4989890;28;20682;-75
2022/10/09 01:50:53;;;;;;;11.73;6.50;;;12.90;99.90;;;;;;4962944;28;20503;-75
2022/10/09 01:53:21;;;;;;;9.03;6.77;;;12.90;99.90;;;;;;4981399;28;20448;-76
2022/10/09 01:56:12;;;;;;;12.50;5.70;;;12.90;99.90;;;;;;4987589;28;20444;-75
2022/10/09 01:59:15;;;;;;;7.50;6.73;;;12.90;99.90;;;;;;4961803;28;21311;-76
2022/10/09 02:01:41;;;;;;;8.60;7.00;;;12.90;99.90;;;;;;4989182;28;20460;-75
2022/10/09 02:04:11;;;;;;;12.97;7.17;;;12.80;99.90;;;;;;4967934;28;20437;-76
2022/10/09 02:06:39;;;;;;;12.97;7.20;;;12.80;99.90;;;;;;4989505;28;20443;-76
2022/10/09 02:09:10;;;;;;;10.40;6.70;;;12.80;99.90;;;;;;4981737;28;21189;-75
2022/10/09 02:11:37;;;;;;;12.57;6.43;;;12.80;99.90;;;;;;4986238;28;20883;-75
2022/10/09 02:14:03;;;;;;;12.90;7.10;;;12.70;99.90;;;;;;4986798;28;20467;-76
2022/10/09 02:16:41;;;;;;;9.17;7.30;;;12.70;99.90;;;;;;4967953;28;20545;-76
2022/10/09 02:19:27;;;;;;;13.00;6.10;;;12.70;99.90;;;;;;4984457;28;20211;-76
2022/10/09 02:22:11;;;;;;;9.67;7.80;;;12.70;99.90;;;;;;4980307;28;20468;-75
2022/10/09 02:24:38;;;;;;;9.10;6.57;;;12.60;99.90;;;;;;4974129;28;20507;-75
2022/10/09 02:27:05;;;;;;;14.23;6.90;;;12.60;99.90;;;;;;4967194;28;20608;-75
2022/10/09 02:29:31;;;;;;;9.10;6.60;;;12.60;99.90;;;;;;4988646;28;20452;-75
2022/10/09 02:31:57;;;;;;;13.30;7.97;;;12.50;99.90;;;;;;4992054;28;20512;-75
2022/10/09 02:34:23;;;;;;;14.80;7.00;;;12.50;99.90;;;;;;4984340;28;20523;-75
2022/10/09 02:36:48;;;;;;;10.40;6.50;;;12.50;99.90;;;;;;4986606;28;20429;-75
2022/10/09 02:39:14;;;;;;;9.40;6.33;;;12.50;99.90;;;;;;4984757;28;20216;-75
2022/10/09 02:41:40;;;;;;;14.73;6.90;;;12.50;99.90;;;;;;4972138;28;20198;-76
2022/10/09 02:44:06;;;;;;;12.67;7.33;;;12.40;99.90;;;;;;4986159;28;20909;-75
2022/10/09 02:46:32;;;;;;;8.13;6.60;;;12.40;99.90;;;;;;4988592;28;20205;-76
2022/10/09 02:48:58;;;;;;;8.00;6.07;;;12.40;99.90;;;;;;4995959;28;20455;-75
2022/10/09 02:51:24;;;;;;;15.67;6.60;;;12.30;99.90;;;;;;4995570;28;20419;-75
2022/10/09 02:53:53;;;;;;;18.43;6.20;;;12.30;99.90;;;;;;4991956;28;20185;-75
2022/10/09 02:56:20;;;;;;;6.93;6.23;;;12.30;99.90;;;;;;4997009;28;20525;-76
2022/10/09 02:58:46;;;;;;;7.47;6.60;;;12.30;99.90;;;;;;4980605;28;21778;-76
2022/10/09 03:01:12;;;;;;;10.70;6.93;;;12.30;99.90;;;;;;4991861;28;20587;-74
2022/10/09 03:03:37;;;;;;;10.67;7.20;;;12.30;99.90;;;;;;4994036;28;20213;-75
2022/10/09 03:06:09;;;;;;;7.70;6.83;;;12.20;99.90;;;;;;4991248;28;20432;-76
2022/10/09 03:08:39;;;;;;;10.27;6.83;;;12.20;99.90;;;;;;4995805;28;20201;-74
2022/10/09 03:11:05;;;;;;;10.37;6.87;;;12.20;99.90;;;;;;4994784;28;20440;-75
2022/10/09 03:13:31;;;;;;;8.97;6.50;;;12.20;99.90;;;;;;4993780;28;20476;-77
2022/10/09 03:16:11;;;;;;;14.27;6.67;;;12.20;99.90;;;;;;4994492;28;20992;-76
2022/10/09 03:18:37;;;;;;;11.27;6.70;;;12.10;99.90;;;;;;4981215;28;20212;-76
2022/10/09 03:21:07;;;;;;;11.63;7.00;;;12.10;99.90;;;;;;4973554;28;20510;-76
2022/10/09 03:23:34;;;;;;;10.83;6.87;;;12.10;99.90;;;;;;4975972;28;20282;-75
2022/10/09 03:26:03;;;;;;;11.63;8.37;;;12.00;99.90;;;;;;4986201;28;20986;-75
2022/10/09 03:28:28;;;;;;;13.57;8.07;;;12.00;99.90;;;;;;4987401;28;20466;-76
2022/10/09 03:30:54;;;;;;;10.70;6.70;;;12.00;99.90;;;;;;4992405;28;21140;-76
2022/10/09 03:33:21;;;;;;;9.60;7.57;;;12.00;99.90;;;;;;4990076;28;20444;-75
2022/10/09 03:35:48;;;;;;;11.30;7.73;;;12.00;99.90;;;;;;4989246;28;20448;-75
2022/10/09 03:38:15;;;;;;;8.93;6.00;;;11.90;99.90;;;;;;4984175;28;20742;-75
2022/10/09 03:40:41;;;;;;;9.37;6.60;;;11.90;99.90;;;;;;4982400;28;20444;-75
2022/10/09 03:43:08;;;;;;;10.90;7.30;;;11.90;99.90;;;;;;4971460;28;20444;-76
2022/10/09 03:45:34;;;;;;;10.57;6.63;;;11.90;99.90;;;;;;4987876;28;21321;-76
2022/10/09 03:47:59;;;;;;;9.00;6.67;;;11.90;99.90;;;;;;4997982;28;20520;-77
2022/10/09 03:50:25;;;;;;;9.20;7.23;;;11.80;99.90;;;;;;4992385;28;20463;-76
2022/10/09 03:52:51;;;;;;;10.20;7.13;;;11.80;99.90;;;;;;4992049;28;20193;-76
2022/10/09 03:55:17;;;;;;;12.60;7.77;;;11.80;99.90;;;;;;4989489;28;20487;-75
2022/10/09 03:57:42;;;;;;;12.73;8.20;;;11.70;99.90;;;;;;4987029;28;20190;-75
2022/10/09 04:00:09;;;;;;;11.23;6.73;;;11.70;99.90;;;;;;4978549;28;20597;-75
2022/10/09 04:02:35;;;;;;;8.57;7.47;;;11.70;99.90;;;;;;4992437;28;20220;-77
2022/10/09 04:05:01;;;;;;;9.53;6.90;;;11.60;99.90;;;;;;4993776;28;20783;-75
2022/10/09 04:07:27;;;;;;;13.93;7.20;;;11.60;99.90;;;;;;4993515;28;20292;-75
2022/10/09 04:09:52;;;;;;;10.63;6.63;;;11.60;99.90;;;;;;4990747;28;20305;-75
2022/10/09 04:12:18;;;;;;;12.27;6.47;;;11.60;99.90;;;;;;4992731;28;20190;-75
2022/10/09 04:14:43;;;;;;;9.00;7.00;;;11.60;99.90;;;;;;4976052;28;20780;-76
2022/10/09 04:17:09;;;;;;;10.40;7.30;;;11.60;99.90;;;;;;4993799;28;20192;-75
2022/10/09 04:19:35;;;;;;;8.80;6.83;;;11.50;99.90;;;;;;4993187;28;20212;-75
2022/10/09 04:22:01;;;;;;;9.27;6.33;;;11.50;99.90;;;;;;4970633;28;20260;-76
2022/10/09 04:24:27;;;;;;;11.07;6.40;;;11.40;99.90;;;;;;4987915;28;20498;-75
2022/10/09 04:26:52;;;;;;;16.17;8.53;;;11.50;99.90;;;;;;4987297;28;20436;-75
2022/10/09 04:29:18;;;;;;;11.17;7.73;;;11.50;99.90;;;;;;4985134;28;20250;-76
2022/10/09 04:31:43;;;;;;;9.70;7.20;;;11.50;99.90;;;;;;4976441;28;20830;-77
2022/10/09 04:34:09;;;;;;;13.53;7.27;;;11.40;99.90;;;;;;4971754;28;20197;-75
2022/10/09 04:36:35;;;;;;;13.27;7.67;;;11.40;99.90;;;;;;4988466;28;20189;-76
2022/10/09 04:39:00;;;;;;;10.23;7.87;;;11.40;99.90;;;;;;4989962;28;20679;-76
2022/10/09 04:41:26;;;;;;;9.17;6.73;;;11.40;99.90;;;;;;4989566;28;20288;-76
2022/10/09 04:43:55;;;;;;;9.67;7.13;;;11.40;99.90;;;;;;4990464;28;20355;-76
2022/10/09 04:46:21;;;;;;;10.97;6.30;;;11.40;99.90;;;;;;4974394;28;20696;-76
2022/10/09 04:48:47;;;;;;;14.93;7.13;;;11.40;99.90;;;;;;4974892;28;20456;-75
2022/10/09 04:51:15;;;;;;;10.30;7.20;;;11.40;99.90;;;;;;4970250;28;20926;-74
2022/10/09 04:53:41;;;;;;;10.37;7.60;;;11.40;99.90;;;;;;4989744;28;20608;-75
2022/10/09 04:56:09;;;;;;;9.93;7.67;;;11.30;99.90;;;;;;4972110;28;20544;-75
2022/10/09 04:58:36;;;;;;;15.53;7.40;;;11.40;99.90;;;;;;4992042;28;20507;-76
2022/10/09 05:01:14;;;;;;;10.97;7.37;;;11.30;99.90;;;;;;4991393;28;20509;-76
2022/10/09 05:03:39;;;;;;;10.63;7.00;;;11.30;99.90;;;;;;4977069;28;20452;-75
2022/10/09 05:06:07;;;;;;;9.63;7.40;;;11.30;99.90;;;;;;4990068;28;20858;-76
2022/10/09 05:08:33;;;;;;;10.63;6.97;;;11.30;99.90;;;;;;4989218;28;20271;-76
2022/10/09 05:11:05;;;;;;;9.23;6.80;;;11.30;99.90;;;;;;4987690;28;20449;-75
2022/10/09 05:13:33;;;;;;;13.53;8.33;;;11.30;99.90;;;;;;4993078;28;20784;-76
2022/10/09 05:16:04;;;;;;;11.60;7.93;;;11.20;99.90;;;;;;4975671;28;20467;-76
2022/10/09 05:18:30;;;;;;;10.20;6.53;;;11.20;99.90;;;;;;4990460;28;21144;-76
2022/10/09 05:20:56;;;;;;;10.47;7.40;;;11.20;99.90;;;;;;4985335;28;20457;-75
2022/10/09 05:23:21;;;;;;;15.37;8.17;;;11.20;99.90;;;;;;4991044;28;20656;-77
2022/10/09 05:25:57;;;;;;;10.80;7.57;;;11.20;99.90;;;;;;4991782;28;20211;-75
2022/10/09 05:28:23;;;;;;;11.57;7.50;;;11.20;99.90;;;;;;4985683;28;20260;-75
2022/10/09 05:30:49;;;;;;;11.63;6.97;;;11.20;99.90;;;;;;4987734;28;20555;-74
2022/10/09 05:33:15;;;;;;;10.30;8.57;;;11.10;99.90;;;;;;4989101;28;20630;-75
2022/10/09 05:35:49;;;;;;;11.30;7.80;;;11.10;99.90;;;;;;4990078;28;20181;-77
2022/10/09 05:38:15;;;;;;;11.00;7.80;;;11.10;99.90;;;;;;4992857;28;20482;-74
2022/10/09 05:40:52;;;;;;;10.43;7.00;;;11.10;99.90;;;;;;4989809;28;20449;-75
2022/10/09 05:43:18;;;;;;;12.37;8.80;;;11.00;99.90;;;;;;4987589;28;20847;-76
2022/10/09 05:45:44;;;;;;;8.33;6.80;;;11.00;99.90;;;;;;4991363;28;20420;-75
2022/10/09 05:48:10;;;;;;;16.40;7.43;;;11.00;99.90;;;;;;4985640;28;20436;-75
2022/10/09 05:50:36;;;;;;;12.20;7.17;;;11.00;99.90;;;;;;4990154;28;20440;-75
2022/10/09 05:53:01;;;;;;;9.50;6.93;;;11.00;99.90;;;;;;4982456;28;20186;-74
2022/10/09 05:55:27;;;;;;;7.50;6.70;;;11.00;99.90;;;;;;4984207;28;20764;-75
2022/10/09 05:57:53;;;;;;;9.80;6.70;;;11.00;99.90;;;;;;4988134;28;21045;-75
2022/10/09 06:00:19;;;;;;;9.77;6.80;;;11.00;99.90;;;;;;4985358;28;20522;-76
2022/10/09 06:02:44;;;;;;;9.50;6.97;;;11.00;99.90;;;;;;4989223;28;20689;-75
2022/10/09 06:05:10;;;;;;;12.10;7.93;;;11.00;99.90;;;;;;4979931;28;20182;-75
2022/10/09 06:07:36;;;;;;;11.00;7.37;;;11.00;99.90;;;;;;4983723;28;20185;-76
2022/10/09 06:10:03;;;;;;;7.70;6.20;;;11.00;99.90;;;;;;4983691;28;20211;-74
2022/10/09 06:12:28;;;;;;;11.20;7.10;;;11.00;99.90;;;;;;4987997;28;20468;-76
2022/10/09 06:14:54;;;;;;;13.53;8.00;;;11.00;99.90;;;;;;4966059;28;20455;-74
2022/10/09 06:17:19;;;;;;;10.10;7.70;;;11.00;99.90;;;;;;4989973;28;20197;-75
2022/10/09 06:19:45;;;;;;;9.40;7.00;;;11.00;99.90;;;;;;4985050;28;20205;-74
2022/10/09 06:22:11;;;;;;;8.60;6.87;;;11.00;99.90;;;;;;4976611;28;20300;-75
2022/10/09 06:24:36;;;;;;;9.40;7.03;;;11.00;99.90;;;;;;4985154;28;20196;-76
2022/10/09 06:27:02;;;;;;;10.03;7.60;;;11.00;99.90;;;;;;4971904;28;20182;-75
2022/10/09 06:29:29;;;;;;;10.67;9.00;;;11.00;99.90;;;;;;4987619;28;20201;-75
2022/10/09 06:31:55;;;;;;;10.23;7.40;;;11.00;99.90;;;;;;4968391;28;20521;-76
2022/10/09 06:34:20;;;;;;;10.77;7.00;;;11.00;99.90;;;;;;4970529;28;21365;-77
2022/10/09 06:36:46;;;;;;;10.40;7.57;;;11.10;99.90;;;;;;4977592;28;20441;-78
2022/10/09 06:39:12;;;;;;;10.83;7.20;;;11.10;99.90;;;;;;4990613;28;20217;-76
2022/10/09 06:41:38;;;;;;;7.97;7.10;;;11.10;99.90;;;;;;4993046;28;20463;-77
2022/10/09 06:44:05;;;;;;;7.03;6.33;;;11.10;99.90;;;;;;4990480;28;20906;-75
2022/10/09 06:46:37;;;;;;;10.67;6.90;;;11.20;99.90;;;;;;4969173;28;20208;-75
2022/10/09 06:49:04;;;;;;;12.57;6.63;;;11.20;99.90;;;;;;4990550;28;20455;-76
2022/10/09 06:51:30;;;;;;;8.90;6.23;;;11.20;99.90;;;;;;4980066;28;20467;-76
2022/10/09 06:53:59;;;;;;;13.73;7.07;;;11.20;99.90;;;;;;4988133;28;20806;-76
2022/10/09 06:56:26;;;;;;;8.10;6.60;;;11.30;99.90;;;;;;4990934;28;20432;-75
2022/10/09 06:58:52;;;;;;;8.37;5.73;;;11.30;99.90;;;;;;4970218;28;21010;-76
2022/10/09 07:01:19;;;;;;;9.60;7.00;;;11.30;99.90;;;;;;4994681;28;20479;-75
2022/10/09 07:03:47;;;;;;;11.80;8.23;;;11.30;99.90;;;;;;4998379;28;20418;-75
2022/10/09 07:06:18;;;;;;;9.23;6.37;;;11.30;99.90;;;;;;4984997;28;20943;-75
2022/10/09 07:08:48;;;;;;;10.77;7.80;;;11.30;99.90;;;;;;4984526;28;20923;-75
2022/10/09 07:11:19;;;;;;;10.90;6.70;;;11.40;99.90;;;;;;4984764;28;20441;-76
2022/10/09 07:13:45;;;;;;;9.23;7.30;;;11.40;99.90;;;;;;4982351;28;20436;-75
2022/10/09 07:16:11;;;;;;;10.83;7.70;;;11.40;99.90;;;;;;4984106;28;20424;-76
2022/10/09 07:18:37;;;;;;;12.90;7.70;;;11.50;99.90;;;;;;4987449;28;20491;-75
2022/10/09 07:21:07;;;;;;;11.27;8.00;;;11.50;99.90;;;;;;4970121;28;20214;-75
2022/10/09 07:23:34;;;;;;;11.00;7.13;;;11.50;99.90;;;;;;4987977;28;20491;-75
2022/10/09 07:26:01;;;;;;;9.40;6.47;;;11.60;99.90;;;;;;4984446;28;20483;-75
2022/10/09 07:28:28;;;;;;;9.53;7.27;;;11.60;99.90;;;;;;4979949;28;21054;-75
2022/10/09 07:30:55;;;;;;;11.63;7.10;;;11.60;99.90;;;;;;4980387;28;20436;-76
2022/10/09 07:33:20;;;;;;;9.93;6.73;;;11.70;99.90;;;;;;4988999;28;20554;-76
2022/10/09 07:35:57;;;;;;;8.20;6.40;;;11.70;99.90;;;;;;4987946;28;20558;-75
2022/10/09 07:38:23;;;;;;;10.67;6.70;;;11.70;99.90;;;;;;4984394;28;20251;-76
2022/10/09 07:40:49;;;;;;;10.00;6.30;;;11.80;99.90;;;;;;4990164;28;21456;-77
2022/10/09 07:43:15;;;;;;;9.33;6.00;;;11.80;99.90;;;;;;4977398;28;20448;-74
2022/10/09 07:45:41;;;;;;;9.13;6.47;;;11.90;99.90;;;;;;4974791;28;20432;-74
2022/10/09 07:48:07;;;;;;;9.47;6.63;;;11.90;99.90;;;;;;4984815;28;20200;-74
2022/10/09 07:50:33;;;;;;;12.13;6.73;;;12.00;99.90;;;;;;4993609;28;20468;-75
2022/10/09 07:52:58;;;;;;;11.73;6.03;;;12.00;99.90;;;;;;4987328;28;20196;-75
2022/10/09 07:55:24;;;;;;;9.90;7.00;;;12.10;99.90;;;;;;4987440;28;20189;-75
2022/10/09 07:57:50;;;;;;;7.13;6.27;;;12.10;99.90;;;;;;4988069;28;20190;-75
2022/10/09 08:00:16;;;;;;;9.60;5.93;;;12.20;99.90;;;;;;4984961;28;20217;-75
2022/10/09 08:02:41;;;;;;;7.97;5.70;;;12.20;99.90;;;;;;4970258;28;21135;-76
2022/10/09 08:05:08;;;;;;;10.10;7.20;;;12.30;99.90;;;;;;4972183;28;20443;-76
2022/10/09 08:07:33;;;;;;;10.13;5.90;;;12.30;99.90;;;;;;4991320;28;20316;-76
2022/10/09 08:09:59;;;;;;;14.20;8.97;;;12.40;99.90;;;;;;4981811;28;20644;-80
2022/10/09 08:12:24;;;;;;;7.57;5.90;;;12.50;99.90;;;;;;5002755;28;20197;-80
2022/10/09 08:14:50;;;;;;;13.10;9.30;;;12.50;99.90;;;;;;4987009;28;20204;-79
2022/10/09 08:17:16;;;;;;;7.53;5.17;;;12.60;99.90;;;;;;5003094;28;20888;-78
2022/10/09 08:19:41;;;;;;;7.37;5.17;;;12.70;99.90;;;;;;5000754;28;20213;-76
2022/10/09 08:22:07;;;;;;;9.67;6.20;;;12.80;99.90;;;;;;4970760;28;20236;-75
2022/10/09 08:24:33;;;;;;;9.07;4.93;;;12.80;99.90;;;;;;4987102;28;20190;-75
2022/10/09 08:26:58;;;;;;;8.47;5.47;;;12.80;99.90;;;;;;4990353;28;20196;-75
2022/10/09 08:29:24;;;;;;;7.17;5.03;;;12.90;99.90;;;;;;4989309;28;20280;-74
2022/10/09 08:31:51;;;;;;;7.30;5.57;;;12.90;99.90;;;;;;4975981;28;20660;-75
2022/10/09 08:34:17;;;;;;;6.90;5.07;;;13.00;99.90;;;;;;4965598;28;21408;-75
2022/10/09 08:36:43;;;;;;;8.60;5.30;;;13.10;99.90;;;;;;4984907;28;20532;-75
2022/10/09 08:39:09;;;;;;;5.90;4.60;;;13.10;99.90;;;;;;4979691;28;20849;-75
2022/10/09 08:41:37;;;;;;;11.40;5.80;;;13.10;99.90;;;;;;4984729;28;20509;-75
2022/10/09 08:44:21;;;;;;;5.67;4.67;;;13.20;99.90;;;;;;4988714;28;20186;-77
2022/10/09 08:47:02;;;;;;;5.87;4.60;;;13.20;99.90;;;;;;4976261;28;20443;-77
2022/10/09 08:49:49;;;;;;;8.30;4.47;;;13.30;99.90;;;;;;4987329;28;20570;-75
2022/10/09 08:52:24;;;;;;;10.13;5.20;;;13.30;99.90;;;;;;4979032;28;20448;-77
2022/10/09 08:54:52;;;;;;;6.00;4.67;;;13.40;99.90;;;;;;4973504;28;20483;-76
2022/10/09 08:57:20;;;;;;;7.37;5.10;;;13.40;99.90;;;;;;4973798;28;20438;-75
2022/10/09 08:59:46;;;;;;;7.00;4.37;;;13.50;99.90;;;;;;4981386;28;20499;-75
2022/10/09 09:03:02;;;;;;;10.00;4.80;;;13.60;99.90;;;;;;4972604;28;21217;-74
2022/10/09 09:06:04;;;;;;;6.63;4.67;;;13.70;99.90;;;;;;4951825;28;20237;-76
2022/10/09 09:08:43;;;;;;;4.60;3.83;;;13.70;99.90;;;;;;4983356;28;21323;-76
2022/10/09 09:11:19;;;;;;;6.23;4.20;;;13.80;99.90;;;;;;4985569;28;20436;-75
2022/10/09 09:13:58;;;;;;;7.93;4.50;;;13.90;99.90;;;;;;4962059;28;20448;-76
2022/10/09 09:16:46;;;;;;;7.30;3.83;;;14.00;99.90;;;;;;4983988;28;20439;-76
2022/10/09 09:19:17;;;;;;;4.40;3.90;;;14.10;99.90;;;;;;4984190;28;20459;-75
2022/10/09 09:21:50;;;;;;;5.77;4.07;;;14.20;99.90;;;;;;4983464;28;20463;-75
2022/10/09 09:24:19;;;;;;;8.57;3.83;;;14.30;99.90;;;;;;4987763;28;20445;-74
2022/10/09 09:26:51;;;;;;;6.13;3.40;;;14.30;99.90;;;;;;4984133;28;20425;-76
2022/10/09 09:29:22;;;;;;;7.80;4.47;;;14.40;99.90;;;;;;4966672;28;20527;-76
2022/10/09 09:32:00;;;;;;;4.30;3.50;;;14.50;99.90;;;;;;4974069;28;21805;-76
2022/10/09 09:34:46;;;;;;;3.73;2.93;;;14.60;99.90;;;;;;4987471;28;20436;-76
2022/10/09 09:37:12;;;;;;;8.97;4.07;;;14.70;99.90;;;;;;4985339;28;20451;-76
2022/10/09 09:39:42;;;;;;;4.10;3.23;;;14.70;99.90;;;;;;4984348;28;21010;-76
2022/10/09 09:42:13;;;;;;;10.20;3.93;;;14.80;99.90;;;;;;4968734;28;20468;-76
2022/10/09 09:44:47;;;;;;;4.93;3.50;;;14.90;99.90;;;;;;4974977;28;20435;-77
2022/10/09 09:47:22;;;;;;;4.43;3.17;;;15.00;99.90;;;;;;4971853;28;20618;-78
2022/10/09 09:49:59;;;;;;;5.30;4.20;;;15.10;99.90;;;;;;4973185;28;20447;-77
2022/10/09 09:52:29;;;;;;;8.10;3.70;;;15.20;99.90;;;;;;4991482;28;20448;-82
2022/10/09 09:54:58;;;;;;;15.47;3.80;;;15.30;99.90;;;;;;5029020;22;20502;-74
2022/10/09 09:57:34;;;;;;;6.77;3.37;;;15.40;99.90;;;;;;5034525;28;20447;-72
2022/10/09 10:00:28;;;;;;;7.23;3.90;;;15.30;99.90;;;;;;5033403;28;20515;-71
2022/10/09 10:03:15;;;;;;;4.83;3.53;;;15.40;99.90;;;;;;5018717;28;20478;-72
2022/10/09 10:05:43;;;;;;;5.83;3.43;;;15.50;99.90;;;;;;5028242;28;20577;-72
2022/10/09 10:08:26;;;;;;;4.60;3.87;;;15.60;99.90;;;;;;5037956;28;20426;-73
2022/10/09 10:10:55;;;;;;;7.30;3.43;;;15.60;99.90;;;;;;5032436;28;20434;-74
2022/10/09 10:13:31;;;;;;;6.90;3.40;;;15.70;99.90;;;;;;5041022;28;20472;-74
2022/10/09 10:15:57;;;;;;;5.70;3.67;;;15.70;99.90;;;;;;5041856;28;20468;-71
2022/10/09 10:18:27;;;;;;;5.47;3.60;;;15.80;99.90;;;;;;5052753;28;20443;-73
2022/10/09 10:20:54;;;;;;;4.90;3.67;;;15.90;99.90;;;;;;5038210;28;20944;-74
2022/10/09 10:23:36;;;;;;;5.37;3.33;;;15.90;99.90;;;;;;5034188;28;20427;-74
2022/10/09 10:26:16;;;;;;;7.50;3.87;;;16.00;99.90;;;;;;5038212;28;20441;-75
2022/10/09 10:28:50;;;;;;;5.27;3.77;;;16.00;99.90;;;;;;5033992;28;21017;-73
2022/10/09 10:31:46;;;;;;;8.80;3.97;;;16.10;99.90;;;;;;5038654;28;20472;-72
2022/10/09 10:34:47;;;;;;;12.33;7.70;;;16.10;99.90;;;;;;5037490;28;20452;-72
2022/10/09 10:37:12;;;;;;;9.03;6.37;;;16.20;99.90;;;;;;5013118;28;21001;-72
2022/10/09 10:40:08;;;;;;;7.93;4.17;;;16.30;99.90;;;;;;5037317;28;20431;-74
2022/10/09 10:42:52;;;;;;;4.93;3.47;;;16.40;99.90;;;;;;5034467;28;20282;-74
2022/10/09 10:45:25;;;;;;;7.17;3.20;;;16.40;99.90;;;;;;5034707;28;20452;-74
2022/10/09 10:47:54;;;;;;;4.57;3.90;;;16.50;99.90;;;;;;5033887;28;20429;-75
2022/10/09 10:50:21;;;;;;;3.43;3.00;;;16.50;99.90;;;;;;5030329;28;20905;-73
2022/10/09 10:53:29;;;;;;;4.77;3.40;;;16.60;99.90;;;;;;5039327;28;20508;-75
2022/10/09 10:55:57;;;;;;;5.10;3.20;;;16.60;99.90;;;;;;5041357;28;20465;-73
2022/10/09 10:58:31;;;;;;;5.10;3.87;;;16.70;99.90;;;;;;5053920;28;20506;-73
2022/10/09 11:01:15;;;;;;;6.87;3.67;;;16.80;99.90;;;;;;5057731;28;20995;-75
2022/10/09 11:04:17;;;;;;;6.83;3.27;;;16.80;99.90;;;;;;5054330;28;20433;-74
2022/10/09 11:06:54;;;;;;;3.43;3.13;;;16.90;99.90;;;;;;5054847;28;20449;-73
2022/10/09 11:09:46;;;;;;;8.20;3.47;;;17.00;99.90;;;;;;5057434;28;20563;-74
2022/10/09 11:12:32;;;;;;;4.50;2.70;;;17.00;99.90;;;;;;5055060;28;20461;-74
2022/10/09 11:15:10;;;;;;;4.03;3.10;;;17.10;99.90;;;;;;5054357;28;20485;-75
2022/10/09 11:18:12;;;;;;;4.10;3.10;;;17.20;99.90;;;;;;5064496;28;20518;-74
2022/10/09 11:21:00;;;;;;;5.77;3.60;;;17.30;99.90;;;;;;5055800;28;20436;-72
2022/10/09 11:23:45;;;;;;;5.00;3.57;;;17.30;99.90;;;;;;5058908;28;20441;-72
2022/10/09 11:26:40;;;;;;;3.67;2.90;;;17.40;99.90;;;;;;5021143;28;20480;-73
2022/10/09 11:29:18;;;;;;;5.70;3.10;;;17.50;99.90;;;;;;5062018;28;20429;-71
2022/10/09 11:31:56;;;;;;;10.73;3.27;;;17.60;99.90;;;;;;5043657;28;20551;-73
2022/10/09 11:34:34;;;;;;;5.93;2.70;;;17.70;99.90;;;;;;5060857;28;20500;-71
2022/10/09 11:37:02;;;;;;;5.63;3.07;;;17.80;99.90;;;;;;5056945;28;20457;-71
2022/10/09 11:39:31;;;;;;;5.57;3.40;;;18.00;99.90;;;;;;5054906;28;20552;-71
2022/10/09 11:41:57;;;;;;;3.40;2.73;;;18.10;99.90;;;;;;5045088;28;20453;-71
2022/10/09 11:44:52;;;;;;;4.70;3.30;;;18.40;99.90;;;;;;5060373;28;20438;-71
2022/10/09 11:47:40;;;;;;;3.90;3.17;;;18.60;99.90;;;;;;5024707;28;20793;-71
2022/10/09 11:50:44;;;;;;;4.60;3.03;;;19.10;99.90;;;;;;5059024;28;20418;-72
2022/10/09 11:53:14;;;;;;;11.90;9.80;;;19.90;99.90;;;;;;5060014;28;20441;-72
2022/10/09 11:55:41;;;;;;;6.23;5.13;;;20.80;99.90;;;;;;5060675;28;20457;-72
2022/10/09 11:58:19;;;;;;;13.97;9.90;;;21.30;99.90;;;;;;5061905;28;20508;-72
2022/10/09 12:00:49;;;;;;;6.60;3.50;;;21.80;99.90;;;;;;5040296;28;20472;-72
2022/10/09 12:03:33;;;;;;;4.47;2.80;;;22.30;99.90;;;;;;5061940;28;20911;-72
2022/10/09 12:06:05;;;;;;;5.03;3.20;;;22.80;99.90;;;;;;5059235;28;20457;-71
2022/10/09 12:08:30;;;;;;;3.30;3.00;;;23.10;99.90;;;;;;5054664;28;20498;-72
2022/10/09 12:11:14;;;;;;;3.50;2.90;;;23.60;99.90;;;;;;5040892;28;21160;-71
2022/10/09 12:13:50;;;;;;;5.30;2.83;;;24.00;99.90;;;;;;5054551;28;20260;-72
2022/10/09 12:16:33;;;;;;;6.77;3.10;;;24.20;99.30;;;;;;5055666;28;20453;-72
2022/10/09 12:19:02;;;;;;;4.80;2.80;;;24.60;98.00;;;;;;5057865;28;20429;-72
2022/10/09 12:21:41;;;;;;;4.50;3.53;;;24.90;96.70;;;;;;5057654;28;20539;-71
2022/10/09 12:24:19;;;;;;;4.50;3.37;;;25.20;95.60;;;;;;5058562;28;20445;-72
2022/10/09 12:26:47;;;;;;;6.40;3.50;;;25.30;93.80;;;;;;5066018;28;20454;-72
2022/10/09 12:29:51;;;;;;;11.07;3.10;;;25.50;93.30;;;;;;5069522;28;20442;-72
2022/10/09 12:32:25;;;;;;;3.40;2.80;;;25.80;92.30;;;;;;5043567;28;20476;-73
2022/10/09 12:37:36;;;;;;;4.20;3.00;;;26.00;89.40;;;;;;3197233;26;20550;-72
2022/10/09 12:40:19;;;;;;;5.07;3.43;;;25.90;88.30;;;;;;5049592;28;20512;-74
2022/10/09 12:42:52;;;;;;;6.70;3.20;;;26.00;86.80;;;;;;5062278;28;20577;-73
2022/10/09 12:45:24;;;;;;;7.30;2.93;;;26.10;86.40;;;;;;5046896;28;20446;-72
2022/10/09 12:48:09;;;;;;;5.90;3.90;;;26.20;85.40;;;;;;5063852;28;20426;-72
2022/10/09 12:51:18;;;;;;;4.40;2.83;;;26.10;82.70;;;;;;5061857;28;20532;-72
2022/10/09 12:57:50;;;;;;;7.33;3.03;;;26.10;80.90;;;;;;5060849;28;20452;-72
2022/10/09 13:00:18;;;;;;;5.17;2.87;;;26.00;80.20;;;;;;5060880;28;21021;-72
2022/10/09 13:02:44;;;;;;;3.27;2.50;;;26.10;79.40;;;;;;5058318;28;20833;-72
2022/10/09 13:05:09;;;;;;;3.80;3.00;;;26.10;78.40;;;;;;5058776;28;20460;-72
2022/10/09 13:07:35;;;;;;;5.63;3.60;;;26.20;78.10;;;;;;5041817;28;20171;-72
2022/10/09 13:10:05;;;;;;;4.40;2.93;;;26.20;78.30;;;;;;5063854;28;20201;-72